Time;durP1;ratioP1;P1;durP2;ratioP2;P2;SDS_P1;SDS_P2;PMS_P1;PMS_P2;Temp;Humidity;BMP_temperature;BMP_pressure;BME280_temperature;BME280_humidity;BME280_pressure;Samples;Min_cycle;Max_cycle;Signal;HPM_P1;HPM_P2
2022/02/25 00:00:00;;;;;;;;;;;;;;;13.15;54.29;101143.38;1022128;28;1810;-63
2022/02/25 00:00:50;;;;;;;;;;;;;;;13.14;55.10;101138.97;1021092;29;1907;-63
2022/02/25 00:01:40;;;;;;;;;;;;;;;13.13;54.47;101140.78;1021197;29;865;-64
2022/02/25 00:02:31;;;;;;;;;;;;;;;13.13;54.46;101137.25;1020884;29;934;-63
2022/02/25 00:03:21;;;;;;;;;;;;;;;13.13;54.76;101139.91;1021093;29;628;-63
2022/02/25 00:04:12;;;;;;;;;;;;;;;13.13;54.56;101146.13;1017164;29;807;-63
2022/02/25 00:05:03;;;;;;;;;;;;;;;13.13;54.58;101147.94;1017397;29;680;-63
2022/02/25 00:05:53;;;;;;;;;;;;;;;13.13;54.73;101147.94;1020586;29;911;-63
2022/02/25 00:06:44;;;;;;;;;;;;;;;13.11;54.87;101150.72;1021067;29;635;-63
2022/02/25 00:07:34;;;;;;;;;;;;;;;13.12;55.42;101143.56;1021127;29;683;-63
2022/02/25 00:08:25;;;;;;;;;;;;;;;13.11;55.03;101137.34;1021311;29;824;-63
2022/02/25 00:09:15;;;;;;;;;;;;;;;13.10;54.48;101146.34;1021571;29;666;-62
2022/02/25 00:10:06;;;;;;;;;;;;;;;13.11;55.06;101144.53;1020911;29;670;-63
2022/02/25 00:10:56;;;;;;;;;;;;;;;13.11;54.01;101144.53;1020824;29;1204;-63
2022/02/25 00:11:46;;;;;;;;;;;;;;;13.11;54.96;101145.38;1021214;29;646;-63
2022/02/25 00:12:37;;;;;;;;;;;;;;;13.11;54.87;101144.53;1020852;29;772;-63
2022/02/25 00:13:27;;;;;;;;;;;;;;;13.12;54.07;101146.22;1021066;29;667;-63
2022/02/25 00:14:18;;;;;;;;;;;;;;;13.09;55.04;101149.13;1020864;29;833;-63
2022/02/25 00:15:08;;;;;;;;;;;;;;;13.11;54.33;101147.19;1020913;29;646;-63
2022/02/25 00:15:59;;;;;;;;;;;;;;;13.09;54.94;101147.31;1020995;29;861;-63
2022/02/25 00:16:49;;;;;;;;;;;;;;;13.08;54.53;101144.72;1020984;29;668;-63
2022/02/25 00:17:40;;;;;;;;;;;;;;;13.09;55.13;101162.50;1021058;29;746;-63
2022/02/25 00:18:30;;;;;;;;;;;;;;;13.09;54.90;101151.78;1020862;29;761;-64
2022/02/25 00:19:20;;;;;;;;;;;;;;;13.08;54.71;101160.78;1020983;29;631;-63
2022/02/25 00:20:11;;;;;;;;;;;;;;;13.08;53.95;101148.25;1020927;29;619;-64
2022/02/25 00:21:02;;;;;;;;;;;;;;;13.07;55.10;101151.94;1021519;29;1911;-63
2022/02/25 00:21:52;;;;;;;;;;;;;;;13.08;54.90;101152.75;1021054;29;724;-63
2022/02/25 00:22:43;;;;;;;;;;;;;;;13.07;54.41;101154.59;1020916;29;922;-63
2022/02/25 00:23:33;;;;;;;;;;;;;;;13.09;53.91;101154.47;1021576;29;859;-63
2022/02/25 00:24:24;;;;;;;;;;;;;;;13.08;54.97;101160.78;1020906;29;918;-63
2022/02/25 00:25:14;;;;;;;;;;;;;;;13.08;55.17;101160.78;1020905;29;779;-63
2022/02/25 00:26:05;;;;;;;;;;;;;;;13.09;54.72;101157.16;1021165;29;645;-63
2022/02/25 00:26:55;;;;;;;;;;;;;;;13.06;54.49;101163.59;1020927;29;801;-63
2022/02/25 00:27:45;;;;;;;;;;;;;;;13.06;54.56;101162.75;1021084;29;639;-63
2022/02/25 00:28:36;;;;;;;;;;;;;;;13.06;54.30;101160.91;1021077;29;830;-63
2022/02/25 00:29:26;;;;;;;;;;;;;;;13.06;54.62;101158.25;1020984;29;705;-63
2022/02/25 00:30:17;;;;;;;;;;;;;;;13.05;54.09;101161.88;1020877;29;731;-63
2022/02/25 00:31:07;;;;;;;;;;;;;;;13.06;54.83;101160.06;1022059;29;874;-63
2022/02/25 00:31:57;;;;;;;;;;;;;;;13.06;54.67;101157.38;1021096;29;615;-63
2022/02/25 00:32:48;;;;;;;;;;;;;;;13.07;54.75;101159.09;1020988;29;631;-63
2022/02/25 00:33:38;;;;;;;;;;;;;;;13.06;54.57;101162.75;1020961;29;679;-63
2022/02/25 00:34:29;;;;;;;;;;;;;;;13.05;54.05;101150.31;1020852;29;659;-63
2022/02/25 00:35:19;;;;;;;;;;;;;;;13.06;55.14;101162.75;1020864;29;741;-63
2022/02/25 00:36:09;;;;;;;;;;;;;;;13.05;54.20;101161.03;1021005;29;674;-63
2022/02/25 00:37:00;;;;;;;;;;;;;;;13.06;54.80;101168.09;1020977;29;666;-63
2022/02/25 00:37:50;;;;;;;;;;;;;;;13.05;54.48;101167.22;1021000;29;745;-63
2022/02/25 00:38:41;;;;;;;;;;;;;;;13.04;54.89;101160.16;1020936;29;776;-63
2022/02/25 00:39:31;;;;;;;;;;;;;;;13.04;55.02;101172.69;1020967;29;814;-63
2022/02/25 00:40:21;;;;;;;;;;;;;;;13.05;55.21;101166.38;1020897;29;634;-63
2022/02/25 00:41:12;;;;;;;;;;;;;;;13.03;54.33;101163.81;1020765;29;1906;-63
2022/02/25 00:42:05;;;;;;;;;;;;;;;13.03;54.45;101173.66;1021045;29;732;-63
2022/02/25 00:42:55;;;;;;;;;;;;;;;13.04;54.75;101175.38;1021569;29;693;-63
2022/02/25 00:43:45;;;;;;;;;;;;;;;13.02;55.06;101178.16;1021028;29;836;-63
2022/02/25 00:44:36;;;;;;;;;;;;;;;13.03;54.36;101168.28;1021026;29;693;-62
2022/02/25 00:45:26;;;;;;;;;;;;;;;13.02;54.03;101166.59;1020885;29;646;-62
2022/02/25 00:46:17;;;;;;;;;;;;;;;13.02;54.46;101171.94;1021516;29;662;-63
2022/02/25 00:47:08;;;;;;;;;;;;;;;13.02;54.55;101169.25;1021463;29;736;-63
2022/02/25 00:47:58;;;;;;;;;;;;;;;13.02;54.03;101164.75;1020902;29;843;-63
2022/02/25 00:48:49;;;;;;;;;;;;;;;13.02;54.50;101166.59;1021113;29;647;-63
2022/02/25 00:49:40;;;;;;;;;;;;;;;13.01;54.92;101163.06;1021440;29;643;-63
2022/02/25 00:50:30;;;;;;;;;;;;;;;13.03;54.18;101168.28;1021453;29;673;-63
2022/02/25 00:51:21;;;;;;;;;;;;;;;13.02;54.15;101164.75;1020910;29;604;-62
2022/02/25 00:52:11;;;;;;;;;;;;;;;13.02;54.30;101166.59;1020871;29;865;-63
2022/02/25 00:53:02;;;;;;;;;;;;;;;13.02;54.11;101170.13;1020764;29;789;-63
2022/02/25 00:53:52;;;;;;;;;;;;;;;13.03;54.17;101168.28;1020836;29;738;-63
2022/02/25 00:54:44;;;;;;;;;;;;;;;13.03;54.55;101173.66;1021086;29;659;-63
2022/02/25 00:55:34;;;;;;;;;;;;;;;13.03;54.83;101173.66;1021475;29;781;-63
2022/02/25 00:56:25;;;;;;;;;;;;;;;13.02;55.51;101175.47;1020825;29;877;-63
2022/02/25 00:57:16;;;;;;;;;;;;;;;13.02;54.20;101175.47;1021479;29;643;-63
2022/02/25 00:58:06;;;;;;;;;;;;;;;13.00;54.99;101169.38;1020868;29;861;-63
2022/02/25 00:58:56;;;;;;;;;;;;;;;13.01;54.17;101171.06;1021029;29;623;-63
2022/02/25 00:59:47;;;;;;;;;;;;;;;13.00;55.13;101169.38;1020981;29;698;-62
2022/02/25 01:00:37;;;;;;;;;;;;;;;13.00;53.98;101163.16;1021568;29;852;-62
2022/02/25 01:01:28;;;;;;;;;;;;;;;13.00;54.42;101172.03;1020833;29;702;-63
2022/02/25 01:02:18;;;;;;;;;;;;;;;13.00;54.09;101173.84;1020730;29;1006;-63
2022/02/25 01:03:08;;;;;;;;;;;;;;;12.99;55.02;101167.66;1020970;29;686;-63
2022/02/25 01:03:59;;;;;;;;;;;;;;;13.00;54.90;101173.84;1020885;29;659;-63
2022/02/25 01:04:49;;;;;;;;;;;;;;;13.00;55.04;101173.84;1020850;29;558;-62
2022/02/25 01:05:40;;;;;;;;;;;;;;;13.00;55.34;101169.38;1020974;29;888;-63
2022/02/25 01:06:30;;;;;;;;;;;;;;;13.00;54.86;101168.50;1020815;29;741;-63
2022/02/25 01:07:20;;;;;;;;;;;;;;;12.99;54.79;101164.97;1020889;29;725;-63
2022/02/25 01:08:11;;;;;;;;;;;;;;;12.98;54.25;101165.94;1020882;29;623;-63
2022/02/25 01:09:01;;;;;;;;;;;;;;;12.99;55.01;101172.16;1020843;29;734;-63
2022/02/25 01:09:52;;;;;;;;;;;;;;;12.99;54.57;101177.50;1020858;29;659;-63
2022/02/25 01:10:42;;;;;;;;;;;;;;;12.98;54.33;101173.97;1020647;29;1224;-63
2022/02/25 01:11:33;;;;;;;;;;;;;;;12.98;54.13;101165.09;1021042;29;655;-63
2022/02/25 01:12:23;;;;;;;;;;;;;;;12.96;54.20;101173.22;1020862;29;632;-63
2022/02/25 01:13:13;;;;;;;;;;;;;;;12.97;54.88;101182.09;1020910;29;655;-63
2022/02/25 01:14:04;;;;;;;;;;;;;;;12.96;55.31;101167.84;1020928;29;729;-63
2022/02/25 01:14:54;;;;;;;;;;;;;;;12.97;54.13;101174.06;1020833;29;860;-62
2022/02/25 01:15:44;;;;;;;;;;;;;;;12.97;55.46;101174.06;1020997;29;663;-63
2022/02/25 01:16:35;;;;;;;;;;;;;;;12.97;54.59;101168.72;1020846;29;707;-63
2022/02/25 01:17:25;;;;;;;;;;;;;;;12.97;54.54;101169.56;1020786;29;1049;-63
2022/02/25 01:18:16;;;;;;;;;;;;;;;12.96;54.13;101165.19;1020746;29;683;-64
2022/02/25 01:19:06;;;;;;;;;;;;;;;12.95;54.82;101166.16;1020838;29;777;-63
2022/02/25 01:19:57;;;;;;;;;;;;;;;12.96;54.46;101167.00;1021061;29;969;-63
2022/02/25 01:20:47;;;;;;;;;;;;;;;12.95;54.54;101166.16;1021666;29;620;-62
2022/02/25 01:21:37;;;;;;;;;;;;;;;12.95;54.49;101170.63;1021713;29;718;-63
2022/02/25 01:22:28;;;;;;;;;;;;;;;12.96;54.81;101180.38;1021606;29;623;-63
2022/02/25 01:23:18;;;;;;;;;;;;;;;12.95;55.34;101168.81;1021623;29;849;-62
2022/02/25 01:24:09;;;;;;;;;;;;;;;12.95;54.16;101170.63;1021723;29;667;-63
2022/02/25 01:24:59;;;;;;;;;;;;;;;12.96;55.03;101177.69;1021528;29;669;-63
2022/02/25 01:25:49;;;;;;;;;;;;;;;12.96;55.46;101175.03;1021723;29;690;-63
2022/02/25 01:26:40;;;;;;;;;;;;;;;12.95;54.81;101176.00;1021659;29;612;-63
2022/02/25 01:27:30;;;;;;;;;;;;;;;12.94;54.82;101176.94;1021549;29;764;-63
2022/02/25 01:28:21;;;;;;;;;;;;;;;12.96;54.26;101180.38;1021559;29;679;-63
2022/02/25 01:29:11;;;;;;;;;;;;;;;12.94;54.75;101174.28;1017863;29;679;-63
2022/02/25 01:30:03;;;;;;;;;;;;;;;12.93;54.63;101178.78;1017836;29;632;-63
2022/02/25 01:30:53;;;;;;;;;;;;;;;12.94;54.80;101171.59;1021139;29;628;-62
2022/02/25 01:31:45;;;;;;;;;;;;;;;12.95;54.10;101176.00;1021609;29;700;-63
2022/02/25 01:32:35;;;;;;;;;;;;;;;12.95;55.12;101173.31;1022075;29;945;-63
2022/02/25 01:33:25;;;;;;;;;;;;;;;12.95;54.71;101179.53;1021574;29;744;-63
2022/02/25 01:34:17;;;;;;;;;;;;;;;12.96;54.35;101189.25;1021555;29;907;-63
2022/02/25 01:35:07;;;;;;;;;;;;;;;12.96;54.63;101183.06;1022033;29;708;-63
2022/02/25 01:36:00;;;;;;;;;;;;;;;12.96;55.09;101189.25;1021390;29;849;-63
2022/02/25 01:36:50;;;;;;;;;;;;;;;12.95;54.47;101192.03;1022200;29;721;-63
2022/02/25 01:37:40;;;;;;;;;;;;;;;12.93;54.81;101175.22;1021557;29;722;-63
2022/02/25 01:38:31;;;;;;;;;;;;;;;12.94;54.95;101193.00;1021583;29;675;-63
2022/02/25 01:39:21;;;;;;;;;;;;;;;12.94;54.00;101190.31;1021674;29;675;-63
2022/02/25 01:40:12;;;;;;;;;;;;;;;12.94;54.79;101195.69;1021364;29;864;-63
2022/02/25 01:41:03;;;;;;;;;;;;;;;12.93;54.63;101181.44;1022101;29;1894;-64
2022/02/25 01:41:55;;;;;;;;;;;;;;;12.93;54.97;101191.28;1022214;29;989;-63
2022/02/25 01:42:45;;;;;;;;;;;;;;;12.92;55.13;101190.44;1022060;29;632;-63
2022/02/25 01:43:35;;;;;;;;;;;;;;;12.91;55.25;101194.06;1021655;29;607;-63
2022/02/25 01:44:26;;;;;;;;;;;;;;;12.92;54.64;101192.25;1021396;29;735;-63
2022/02/25 01:45:16;;;;;;;;;;;;;;;12.92;55.25;101197.59;1021502;29;728;-63
2022/02/25 01:46:07;;;;;;;;;;;;;;;12.91;54.78;101202.09;1021426;29;936;-63
2022/02/25 01:46:57;;;;;;;;;;;;;;;12.92;54.16;101193.09;1021555;29;610;-63
2022/02/25 01:47:48;;;;;;;;;;;;;;;12.91;54.66;101191.38;1021616;29;654;-63
2022/02/25 01:48:38;;;;;;;;;;;;;;;12.91;54.24;101194.06;1021563;29;643;-64
2022/02/25 01:49:28;;;;;;;;;;;;;;;12.92;54.88;101200.28;1021555;29;623;-63
2022/02/25 01:50:19;;;;;;;;;;;;;;;12.92;54.77;101197.59;1021362;29;837;-63
2022/02/25 01:51:09;;;;;;;;;;;;;;;12.92;54.93;101194.91;1021547;29;802;-63
2022/02/25 01:52:00;;;;;;;;;;;;;;;12.91;55.37;101195.88;1021516;29;808;-63
2022/02/25 01:52:50;;;;;;;;;;;;;;;12.91;54.56;101195.88;1021414;29;682;-63
2022/02/25 01:53:41;;;;;;;;;;;;;;;12.90;55.19;101199.56;1021725;29;718;-63
2022/02/25 01:54:31;;;;;;;;;;;;;;;12.90;54.96;101205.72;1021311;29;770;-63
2022/02/25 01:55:21;;;;;;;;;;;;;;;12.89;54.29;101198.69;1021522;29;654;-62
2022/02/25 01:56:12;;;;;;;;;;;;;;;12.90;55.16;101196.88;1021457;29;616;-63
2022/02/25 01:57:02;;;;;;;;;;;;;;;12.90;55.12;101202.22;1017749;29;616;-63
2022/02/25 01:57:53;;;;;;;;;;;;;;;12.90;55.01;101204.91;1017862;29;666;-62
2022/02/25 01:58:43;;;;;;;;;;;;;;;12.90;54.35;101202.22;1020504;29;909;-63
2022/02/25 01:59:34;;;;;;;;;;;;;;;12.89;54.66;101197.84;1021601;29;647;-63
2022/02/25 02:00:24;;;;;;;;;;;;;;;12.89;55.09;101200.50;1021418;29;632;-63
2022/02/25 02:01:14;;;;;;;;;;;;;;;12.88;54.55;101202.31;1021405;29;1878;-63
2022/02/25 02:02:05;;;;;;;;;;;;;;;12.89;54.70;101192.47;1021460;29;623;-63
2022/02/25 02:02:55;;;;;;;;;;;;;;;12.87;54.13;101192.59;1021462;29;932;-63
2022/02/25 02:03:46;;;;;;;;;;;;;;;12.88;54.96;101190.78;1021602;29;714;-63
2022/02/25 02:04:36;;;;;;;;;;;;;;;12.85;53.92;101200.72;1021499;29;619;-63
2022/02/25 02:05:26;;;;;;;;;;;;;;;12.85;54.83;101189.16;1021463;29;733;-62
2022/02/25 02:06:17;;;;;;;;;;;;;;;12.86;54.61;101193.53;1021347;29;632;-62
2022/02/25 02:07:08;;;;;;;;;;;;;;;12.88;53.93;101193.44;1021350;29;764;-63
2022/02/25 02:07:58;;;;;;;;;;;;;;;12.87;55.15;101200.59;1021953;29;708;-63
2022/02/25 02:08:49;;;;;;;;;;;;;;;12.88;54.57;101191.63;1021584;29;623;-63
2022/02/25 02:09:39;;;;;;;;;;;;;;;12.88;55.44;101188.09;1021483;29;770;-63
2022/02/25 02:10:29;;;;;;;;;;;;;;;12.86;54.82;101191.72;1021421;29;619;-63
2022/02/25 02:11:20;;;;;;;;;;;;;;;12.86;54.13;101205.09;1021188;29;857;-63
2022/02/25 02:12:10;;;;;;;;;;;;;;;12.85;55.16;101184.66;1021439;29;611;-63
2022/02/25 02:13:01;;;;;;;;;;;;;;;12.84;55.35;101192.78;1021578;29;628;-63
2022/02/25 02:13:51;;;;;;;;;;;;;;;12.84;54.72;101190.97;1021379;29;650;-63
2022/02/25 02:14:41;;;;;;;;;;;;;;;12.85;54.60;101187.34;1021620;29;666;-63
2022/02/25 02:15:32;;;;;;;;;;;;;;;12.84;54.13;101193.66;1021345;29;852;-63
2022/02/25 02:16:22;;;;;;;;;;;;;;;12.84;54.58;101196.31;1021400;29;635;-63
2022/02/25 02:17:13;;;;;;;;;;;;;;;12.82;55.34;101184.88;1021428;29;918;-63
2022/02/25 02:18:03;;;;;;;;;;;;;;;12.82;54.67;101187.53;1021417;29;730;-63
2022/02/25 02:18:54;;;;;;;;;;;;;;;12.82;54.21;101187.53;1021427;29;741;-63
2022/02/25 02:19:44;;;;;;;;;;;;;;;12.82;54.42;101192.03;1021301;29;850;-63
2022/02/25 02:20:34;;;;;;;;;;;;;;;12.82;55.26;101192.91;1022049;29;658;-63
2022/02/25 02:21:25;;;;;;;;;;;;;;;12.82;54.42;101192.03;1021267;29;675;-62
2022/02/25 02:22:15;;;;;;;;;;;;;;;12.82;54.44;101192.91;1021396;29;631;-62
2022/02/25 02:23:06;;;;;;;;;;;;;;;12.83;54.68;101193.75;1021399;29;696;-62
2022/02/25 02:23:56;;;;;;;;;;;;;;;12.82;54.17;101192.91;1021411;29;925;-62
2022/02/25 02:24:47;;;;;;;;;;;;;;;12.82;54.75;101195.56;1021525;29;652;-62
2022/02/25 02:25:37;;;;;;;;;;;;;;;12.82;54.46;101195.56;1021407;29;781;-62
2022/02/25 02:26:28;;;;;;;;;;;;;;;12.81;54.12;101193.00;1021393;29;702;-62
2022/02/25 02:27:18;;;;;;;;;;;;;;;12.81;54.79;101191.19;1021306;29;624;-63
2022/02/25 02:28:17;;;;;;;;;;;;;;;12.80;55.01;101192.13;1021319;29;680;-62
2022/02/25 02:29:08;;;;;;;;;;;;;;;12.81;55.04;101193.00;1021429;29;666;-62
2022/02/25 02:29:58;;;;;;;;;;;;;;;12.81;54.11;101188.50;1021361;29;848;-62
2022/02/25 02:30:49;;;;;;;;;;;;;;;12.82;54.90;101192.03;1021502;29;702;-62
2022/02/25 02:31:39;;;;;;;;;;;;;;;12.80;54.56;101186.78;1020881;29;687;-62
2022/02/25 02:32:29;;;;;;;;;;;;;;;12.80;54.49;101188.59;1021050;29;918;-62
2022/02/25 02:33:20;;;;;;;;;;;;;;;12.80;54.94;101189.47;1021239;29;671;-62
2022/02/25 02:34:12;;;;;;;;;;;;;;;12.80;54.16;101186.78;1021235;29;714;-62
2022/02/25 02:35:02;;;;;;;;;;;;;;;12.80;55.19;101192.13;1021927;29;682;-63
2022/02/25 02:35:52;;;;;;;;;;;;;;;12.79;54.67;101186.91;1021417;29;643;-62
2022/02/25 02:36:43;;;;;;;;;;;;;;;12.79;54.24;101182.41;1021329;29;683;-62
2022/02/25 02:37:33;;;;;;;;;;;;;;;12.79;54.14;101187.75;1021410;29;643;-61
2022/02/25 02:38:24;;;;;;;;;;;;;;;12.79;54.14;101187.75;1021313;29;800;-62
2022/02/25 02:39:15;;;;;;;;;;;;;;;12.78;54.20;101177.16;1021309;29;639;-62
2022/02/25 02:40:05;;;;;;;;;;;;;;;12.78;54.56;101183.38;1021940;29;631;-62
2022/02/25 02:40:56;;;;;;;;;;;;;;;12.80;53.92;101183.25;1017591;29;1966;-62
2022/02/25 02:41:46;;;;;;;;;;;;;;;12.80;54.39;101189.47;1017657;29;651;-61
2022/02/25 02:42:37;;;;;;;;;;;;;;;12.80;54.73;101184.13;1020517;29;922;-63
2022/02/25 02:43:27;;;;;;;;;;;;;;;12.80;54.50;101177.91;1021147;29;611;-63
2022/02/25 02:44:17;;;;;;;;;;;;;;;12.78;54.11;101175.34;1021336;29;666;-63
2022/02/25 02:45:09;;;;;;;;;;;;;;;12.78;54.12;101175.34;1021169;29;761;-63
2022/02/25 02:45:59;;;;;;;;;;;;;;;12.78;54.06;101175.34;1021886;29;770;-63
2022/02/25 02:46:49;;;;;;;;;;;;;;;12.78;55.02;101175.34;1017604;29;715;-62
2022/02/25 02:47:40;;;;;;;;;;;;;;;12.77;54.45;101183.47;1017689;29;741;-63
2022/02/25 02:48:30;;;;;;;;;;;;;;;12.76;54.53;101177.25;1020512;29;615;-63
2022/02/25 02:49:21;;;;;;;;;;;;;;;12.76;54.47;101182.59;1021298;29;691;-62
2022/02/25 02:50:11;;;;;;;;;;;;;;;12.73;55.19;101174.78;1021316;29;635;-62
2022/02/25 02:51:02;;;;;;;;;;;;;;;12.75;54.33;101178.22;1021274;29;832;-63
2022/02/25 02:51:52;;;;;;;;;;;;;;;12.74;55.04;101176.50;1021348;29;814;-63
2022/02/25 02:52:42;;;;;;;;;;;;;;;12.75;54.30;101175.53;1021364;29;765;-62
2022/02/25 02:53:33;;;;;;;;;;;;;;;12.76;55.23;101179.06;1021278;29;706;-62
2022/02/25 02:54:23;;;;;;;;;;;;;;;12.75;54.64;101175.53;1021246;29;675;-63
2022/02/25 02:55:14;;;;;;;;;;;;;;;12.75;54.38;101183.56;1017524;29;847;-62
2022/02/25 02:56:04;;;;;;;;;;;;;;;12.74;54.42;101179.19;1017597;29;698;-63
2022/02/25 02:56:54;;;;;;;;;;;;;;;12.75;54.59;101175.53;1020569;29;651;-62
2022/02/25 02:57:45;;;;;;;;;;;;;;;12.76;54.27;101182.59;1021274;29;694;-63
2022/02/25 02:58:36;;;;;;;;;;;;;;;12.76;55.17;101176.41;1021868;29;709;-63
2022/02/25 02:59:26;;;;;;;;;;;;;;;12.76;54.12;101174.59;1021132;29;732;-63
2022/02/25 03:00:16;;;;;;;;;;;;;;;12.76;53.91;101176.41;1021266;29;635;-63
2022/02/25 03:01:07;;;;;;;;;;;;;;;12.74;54.31;101171.16;1021279;29;1902;-62
2022/02/25 03:01:57;;;;;;;;;;;;;;;12.75;54.12;101180.03;1021186;29;623;-62
2022/02/25 03:02:48;;;;;;;;;;;;;;;12.74;53.95;101171.16;1021292;29;623;-62
2022/02/25 03:03:38;;;;;;;;;;;;;;;12.74;54.51;101175.66;1021176;29;915;-63
2022/02/25 03:04:28;;;;;;;;;;;;;;;12.73;54.86;101182.81;1021270;29;703;-62
2022/02/25 03:05:19;;;;;;;;;;;;;;;12.72;55.00;101175.75;1021218;29;765;-64
2022/02/25 03:06:09;;;;;;;;;;;;;;;12.72;54.91;101170.41;1021185;29;624;-62
2022/02/25 03:07:00;;;;;;;;;;;;;;;12.72;53.78;101181.09;1021268;29;1022;-62
2022/02/25 03:07:50;;;;;;;;;;;;;;;12.73;53.81;101176.59;1021024;29;921;-62
2022/02/25 03:08:40;;;;;;;;;;;;;;;12.72;54.64;101177.59;1021358;29;755;-62
2022/02/25 03:09:31;;;;;;;;;;;;;;;12.72;54.48;101181.09;1021102;29;732;-63
2022/02/25 03:10:21;;;;;;;;;;;;;;;12.73;53.82;101176.59;1021165;29;655;-62
2022/02/25 03:11:13;;;;;;;;;;;;;;;12.72;54.68;101175.75;1021294;29;779;-62
2022/02/25 03:12:03;;;;;;;;;;;;;;;12.72;54.24;101181.09;1021646;29;874;-62
2022/02/25 03:12:54;;;;;;;;;;;;;;;12.72;54.78;101167.72;1021331;29;623;-62
2022/02/25 03:13:44;;;;;;;;;;;;;;;12.71;54.95;101173.22;1021217;29;970;-62
2022/02/25 03:14:36;;;;;;;;;;;;;;;12.70;54.41;101177.69;1021378;29;714;-62
2022/02/25 03:15:26;;;;;;;;;;;;;;;12.70;54.96;101177.69;1021705;29;682;-62
2022/02/25 03:16:16;;;;;;;;;;;;;;;12.70;54.61;101169.69;1021202;29;897;-62
2022/02/25 03:17:07;;;;;;;;;;;;;;;12.70;54.44;101172.34;1021213;29;619;-61
2022/02/25 03:17:58;;;;;;;;;;;;;;;12.70;54.43;101175.03;1021662;29;868;-61
2022/02/25 03:18:49;;;;;;;;;;;;;;;12.72;53.88;101177.59;1021248;29;589;-61
2022/02/25 03:19:39;;;;;;;;;;;;;;;12.71;54.69;101163.38;1021837;29;832;-61
2022/02/25 03:20:29;;;;;;;;;;;;;;;12.72;54.49;101169.56;1021330;29;667;-61
2022/02/25 03:21:20;;;;;;;;;;;;;;;12.70;54.35;101168.81;1021017;29;1894;-62
2022/02/25 03:22:10;;;;;;;;;;;;;;;12.70;54.44;101172.34;1021079;29;687;-62
2022/02/25 03:23:01;;;;;;;;;;;;;;;12.70;54.44;101171.50;1021196;29;637;-62
2022/02/25 03:23:51;;;;;;;;;;;;;;;12.69;54.21;101165.28;1021277;29;643;-62
2022/02/25 03:24:42;;;;;;;;;;;;;;;12.69;54.49;101170.63;1021175;29;662;-61
2022/02/25 03:25:32;;;;;;;;;;;;;;;12.70;54.28;101166.16;1021099;29;674;-61
2022/02/25 03:26:22;;;;;;;;;;;;;;;12.69;54.40;101169.78;1021122;29;770;-62
2022/02/25 03:27:13;;;;;;;;;;;;;;;12.68;54.56;101168.94;1021279;29;694;-61
2022/02/25 03:28:03;;;;;;;;;;;;;;;12.68;54.99;101168.94;1021232;29;619;-62
2022/02/25 03:28:54;;;;;;;;;;;;;;;12.68;54.92;101173.41;1021292;29;670;-62
2022/02/25 03:29:45;;;;;;;;;;;;;;;12.69;53.73;101167.97;1021699;29;619;-62
2022/02/25 03:30:35;;;;;;;;;;;;;;;12.69;53.88;101173.31;1021712;29;757;-62
2022/02/25 03:31:26;;;;;;;;;;;;;;;12.68;54.60;101163.56;1021203;29;717;-62
2022/02/25 03:32:16;;;;;;;;;;;;;;;12.68;54.15;101155.56;1020955;29;928;-62
2022/02/25 03:33:07;;;;;;;;;;;;;;;12.68;54.60;101162.72;1021114;29;651;-62
2022/02/25 03:33:57;;;;;;;;;;;;;;;12.68;54.87;101162.72;1021185;29;952;-62
2022/02/25 03:34:48;;;;;;;;;;;;;;;12.67;54.49;101161.00;1021158;29;922;-61
2022/02/25 03:35:38;;;;;;;;;;;;;;;12.66;54.96;101165.50;1021146;29;671;-62
2022/02/25 03:36:30;;;;;;;;;;;;;;;12.65;53.78;101158.44;1021262;29;651;-62
2022/02/25 03:37:20;;;;;;;;;;;;;;;12.66;54.16;101164.63;1021594;29;646;-62
2022/02/25 03:38:10;;;;;;;;;;;;;;;12.65;54.92;101169.13;1021097;29;647;-61
2022/02/25 03:39:01;;;;;;;;;;;;;;;12.66;53.86;101172.66;1021004;29;895;-61
2022/02/25 03:39:51;;;;;;;;;;;;;;;12.65;54.44;101169.13;1021150;29;647;-62
2022/02/25 03:40:42;;;;;;;;;;;;;;;12.66;54.38;101164.63;1021080;29;734;-61
2022/02/25 03:41:32;;;;;;;;;;;;;;;12.65;54.34;101161.09;1021184;29;703;-62
2022/02/25 03:42:23;;;;;;;;;;;;;;;12.66;54.17;101170.00;1021080;29;627;-61
2022/02/25 03:43:13;;;;;;;;;;;;;;;12.66;54.45;101167.31;1020670;29;777;-61
2022/02/25 03:44:03;;;;;;;;;;;;;;;12.65;55.07;101169.13;1021132;29;619;-63
2022/02/25 03:44:54;;;;;;;;;;;;;;;12.64;54.08;101172.75;1021229;29;648;-64
2022/02/25 03:45:44;;;;;;;;;;;;;;;12.65;54.47;101179.81;1021160;29;662;-61
2022/02/25 03:46:35;;;;;;;;;;;;;;;12.64;54.85;101166.56;1021174;29;687;-63
2022/02/25 03:47:25;;;;;;;;;;;;;;;12.64;54.11;101178.09;1020820;29;995;-62
2022/02/25 03:48:16;;;;;;;;;;;;;;;12.65;54.54;101179.81;1021062;29;670;-63
2022/02/25 03:49:07;;;;;;;;;;;;;;;12.65;54.41;101174.47;1021592;29;761;-63
2022/02/25 03:49:57;;;;;;;;;;;;;;;12.63;53.98;101176.41;1021020;29;639;-62
2022/02/25 03:50:48;;;;;;;;;;;;;;;12.62;54.21;101173.81;1021171;29;675;-62
2022/02/25 03:51:38;;;;;;;;;;;;;;;12.63;54.31;101179.06;1020918;29;918;-63
2022/02/25 03:52:28;;;;;;;;;;;;;;;12.62;54.85;101177.34;1021117;29;674;-62
2022/02/25 03:53:19;;;;;;;;;;;;;;;12.63;53.87;101176.41;1021100;29;758;-62
2022/02/25 03:54:10;;;;;;;;;;;;;;;12.63;54.55;101173.72;1021111;29;635;-62
2022/02/25 03:55:00;;;;;;;;;;;;;;;12.62;54.41;101174.69;1021655;29;590;-62
2022/02/25 03:55:50;;;;;;;;;;;;;;;12.63;54.30;101176.41;1021022;29;616;-62
2022/02/25 03:56:41;;;;;;;;;;;;;;;12.63;53.65;101173.72;1021074;29;711;-62
2022/02/25 03:57:31;;;;;;;;;;;;;;;12.63;54.39;101175.53;1020973;29;720;-63
2022/02/25 03:58:22;;;;;;;;;;;;;;;12.63;54.28;101178.22;1021044;29;651;-62
2022/02/25 03:59:12;;;;;;;;;;;;;;;12.62;54.98;101182.69;1020944;29;648;-62
2022/02/25 04:00:02;;;;;;;;;;;;;;;12.61;54.25;101183.66;1020939;29;672;-62
2022/02/25 04:00:53;;;;;;;;;;;;;;;12.61;54.24;101189.00;1021180;29;607;-62
2022/02/25 04:01:51;;;;;;;;;;;;;;;12.62;54.49;101189.88;1020954;29;937;-63
2022/02/25 04:02:42;;;;;;;;;;;;;;;12.61;54.24;101186.34;1021685;29;667;-62
2022/02/25 04:03:32;;;;;;;;;;;;;;;12.63;54.57;101188.91;1021023;29;682;-62
2022/02/25 04:04:23;;;;;;;;;;;;;;;12.63;54.33;101194.25;1021055;29;666;-62
2022/02/25 04:05:13;;;;;;;;;;;;;;;12.62;54.65;101184.53;1020960;29;680;-62
2022/02/25 04:06:04;;;;;;;;;;;;;;;12.62;54.48;101192.53;1021552;29;918;-62
2022/02/25 04:06:54;;;;;;;;;;;;;;;12.60;54.34;101187.28;1021066;29;643;-62
2022/02/25 04:07:46;;;;;;;;;;;;;;;12.60;54.71;101194.47;1020835;29;719;-62
2022/02/25 04:08:36;;;;;;;;;;;;;;;12.60;54.93;101192.63;1021525;29;639;-62
2022/02/25 04:09:27;;;;;;;;;;;;;;;12.59;54.58;101190.94;1021634;29;658;-62
2022/02/25 04:10:17;;;;;;;;;;;;;;;12.59;54.01;101190.94;1020840;29;928;-62
2022/02/25 04:11:07;;;;;;;;;;;;;;;12.59;54.62;101188.25;1020944;29;734;-62
2022/02/25 04:12:02;;;;;;;;;;;;;;;12.60;54.26;101192.63;1021500;29;701;-62
2022/02/25 04:12:52;;;;;;;;;;;;;;;12.60;54.64;101186.44;1021623;29;694;-62
2022/02/25 04:13:43;;;;;;;;;;;;;;;12.60;54.28;101187.28;1021187;29;631;-61
2022/02/25 04:14:33;;;;;;;;;;;;;;;12.61;54.99;101186.34;1021006;29;863;-62
2022/02/25 04:15:23;;;;;;;;;;;;;;;12.61;54.52;101188.16;1021481;29;615;-62
2022/02/25 04:16:14;;;;;;;;;;;;;;;12.60;54.12;101189.97;1021127;29;759;-62
2022/02/25 04:17:05;;;;;;;;;;;;;;;12.60;54.96;101187.28;1021684;29;722;-62
2022/02/25 04:17:55;;;;;;;;;;;;;;;12.59;54.43;101176.69;1021008;29;686;-62
2022/02/25 04:18:45;;;;;;;;;;;;;;;12.60;53.95;101187.28;1021038;29;940;-61
2022/02/25 04:19:36;;;;;;;;;;;;;;;12.60;53.88;101184.63;1021110;29;627;-62
2022/02/25 04:20:27;;;;;;;;;;;;;;;12.59;54.82;101182.91;1021445;29;753;-62
2022/02/25 04:21:17;;;;;;;;;;;;;;;12.59;54.79;101182.06;1017227;29;1899;-62
2022/02/25 04:22:07;;;;;;;;;;;;;;;12.57;53.96;101179.47;1017334;29;747;-62
2022/02/25 04:22:58;;;;;;;;;;;;;;;12.59;54.04;101176.69;1020206;29;846;-62
2022/02/25 04:23:48;;;;;;;;;;;;;;;12.58;54.03;101183.88;1021105;29;695;-62
2022/02/25 04:24:39;;;;;;;;;;;;;;;12.57;55.12;101182.16;1021070;29;633;-62
2022/02/25 04:25:29;;;;;;;;;;;;;;;12.57;54.75;101181.28;1020846;29;637;-62
2022/02/25 04:26:20;;;;;;;;;;;;;;;12.56;54.74;101174.22;1020994;29;604;-62